sensor_id;sensor_type;location;lat;lon;timestamp;temperature;humidity
6054;DHT22;3055;50.886;14.814;2024-02-21T00:01:57;7.20;1.00
6054;DHT22;3055;50.886;14.814;2024-02-21T00:04:24;7.10;1.00
6054;DHT22;3055;50.886;14.814;2024-02-21T00:06:51;7.10;1.00
6054;DHT22;3055;50.886;14.814;2024-02-21T00:09:18;7.20;1.00
6054;DHT22;3055;50.886;14.814;2024-02-21T00:11:47;7.20;1.00
6054;DHT22;3055;50.886;14.814;2024-02-21T00:14:14;7.20;1.00
6054;DHT22;3055;50.886;14.814;2024-02-21T00:16:41;7.20;1.00
6054;DHT22;3055;50.886;14.814;2024-02-21T00:19:08;7.30;1.00
6054;DHT22;3055;50.886;14.814;2024-02-21T00:21:35;7.20;1.00
6054;DHT22;3055;50.886;14.814;2024-02-21T00:24:02;7.10;1.00
6054;DHT22;3055;50.886;14.814;2024-02-21T00:26:29;7.20;1.00
6054;DHT22;3055;50.886;14.814;2024-02-21T00:28:58;7.20;1.00
6054;DHT22;3055;50.886;14.814;2024-02-21T00:31:25;7.20;1.00
6054;DHT22;3055;50.886;14.814;2024-02-21T00:33:52;7.20;1.00
6054;DHT22;3055;50.886;14.814;2024-02-21T00:36:19;7.20;1.00
6054;DHT22;3055;50.886;14.814;2024-02-21T00:38:46;7.20;1.00
6054;DHT22;3055;50.886;14.814;2024-02-21T00:41:13;7.20;1.00
6054;DHT22;3055;50.886;14.814;2024-02-21T00:43:40;7.10;1.00
6054;DHT22;3055;50.886;14.814;2024-02-21T00:46:09;7.10;1.00
6054;DHT22;3055;50.886;14.814;2024-02-21T00:48:36;7.10;1.00
6054;DHT22;3055;50.886;14.814;2024-02-21T00:51:03;7.10;1.00
6054;DHT22;3055;50.886;14.814;2024-02-21T00:53:30;7.10;1.00
6054;DHT22;3055;50.886;14.814;2024-02-21T00:55:57;7.00;1.00
6054;DHT22;3055;50.886;14.814;2024-02-21T00:58:24;7.10;1.00
6054;DHT22;3055;50.886;14.814;2024-02-21T01:00:51;7.10;1.00
6054;DHT22;3055;50.886;14.814;2024-02-21T01:03:20;7.10;1.00
6054;DHT22;3055;50.886;14.814;2024-02-21T01:05:47;7.10;1.00
6054;DHT22;3055;50.886;14.814;2024-02-21T01:08:14;7.10;1.00
6054;DHT22;3055;50.886;14.814;2024-02-21T01:10:41;7.10;1.00
6054;DHT22;3055;50.886;14.814;2024-02-21T01:13:08;7.10;1.00
6054;DHT22;3055;50.886;14.814;2024-02-21T01:15:35;7.10;1.00
6054;DHT22;3055;50.886;14.814;2024-02-21T01:18:03;7.10;1.00
6054;DHT22;3055;50.886;14.814;2024-02-21T01:20:32;7.10;1.00
6054;DHT22;3055;50.886;14.814;2024-02-21T01:22:59;7.10;1.00
6054;DHT22;3055;50.886;14.814;2024-02-21T01:25:26;7.10;1.00
6054;DHT22;3055;50.886;14.814;2024-02-21T01:27:53;7.10;1.00
6054;DHT22;3055;50.886;14.814;2024-02-21T01:30:20;7.10;1.00
6054;DHT22;3055;50.886;14.814;2024-02-21T01:32:47;7.10;1.00
6054;DHT22;3055;50.886;14.814;2024-02-21T01:35:14;7.10;1.00
6054;DHT22;3055;50.886;14.814;2024-02-21T01:37:42;7.00;1.00
6054;DHT22;3055;50.886;14.814;2024-02-21T01:40:10;7.00;1.00
6054;DHT22;3055;50.886;14.814;2024-02-21T01:42:38;7.00;1.00
6054;DHT22;3055;50.886;14.814;2024-02-21T01:45:06;7.00;1.00
6054;DHT22;3055;50.886;14.814;2024-02-21T01:47:34;7.00;1.00
6054;DHT22;3055;50.886;14.814;2024-02-21T01:50:02;6.90;1.00
6054;DHT22;3055;50.886;14.814;2024-02-21T01:52:29;7.00;1.00
6054;DHT22;3055;50.886;14.814;2024-02-21T01:54:59;6.90;1.00
6054;DHT22;3055;50.886;14.814;2024-02-21T01:57:26;6.90;1.00
6054;DHT22;3055;50.886;14.814;2024-02-21T01:59:54;7.00;1.00
6054;DHT22;3055;50.886;14.814;2024-02-21T02:02:21;7.00;1.00
6054;DHT22;3055;50.886;14.814;2024-02-21T02:04:49;7.00;1.00
6054;DHT22;3055;50.886;14.814;2024-02-21T02:07:16;7.00;1.00
6054;DHT22;3055;50.886;14.814;2024-02-21T02:09:43;7.00;1.00
6054;DHT22;3055;50.886;14.814;2024-02-21T02:12:11;7.00;1.00
6054;DHT22;3055;50.886;14.814;2024-02-21T02:14:38;7.00;1.00
6054;DHT22;3055;50.886;14.814;2024-02-21T02:17:06;7.00;1.00
6054;DHT22;3055;50.886;14.814;2024-02-21T02:19:33;7.10;1.00
6054;DHT22;3055;50.886;14.814;2024-02-21T02:22:05;7.10;1.00
6054;DHT22;3055;50.886;14.814;2024-02-21T02:24:35;7.10;1.00
6054;DHT22;3055;50.886;14.814;2024-02-21T02:27:02;7.10;1.00
6054;DHT22;3055;50.886;14.814;2024-02-21T02:29:32;7.10;1.00
6054;DHT22;3055;50.886;14.814;2024-02-21T02:31:59;7.10;1.00
6054;DHT22;3055;50.886;14.814;2024-02-21T02:34:26;7.10;1.00
6054;DHT22;3055;50.886;14.814;2024-02-21T02:36:54;7.10;1.00
6054;DHT22;3055;50.886;14.814;2024-02-21T02:39:21;7.10;1.00
6054;DHT22;3055;50.886;14.814;2024-02-21T02:41:49;7.00;1.00
6054;DHT22;3055;50.886;14.814;2024-02-21T02:44:16;7.10;1.00
6054;DHT22;3055;50.886;14.814;2024-02-21T02:46:43;7.00;1.00
6054;DHT22;3055;50.886;14.814;2024-02-21T02:49:10;7.00;1.00
6054;DHT22;3055;50.886;14.814;2024-02-21T02:51:41;7.10;1.00
6054;DHT22;3055;50.886;14.814;2024-02-21T02:54:08;7.10;1.00
6054;DHT22;3055;50.886;14.814;2024-02-21T02:56:35;7.10;1.00
6054;DHT22;3055;50.886;14.814;2024-02-21T02:59:03;7.10;1.00
6054;DHT22;3055;50.886;14.814;2024-02-21T03:01:34;7.10;1.00
6054;DHT22;3055;50.886;14.814;2024-02-21T03:04:01;7.10;1.00
6054;DHT22;3055;50.886;14.814;2024-02-21T03:06:28;7.10;1.00
6054;DHT22;3055;50.886;14.814;2024-02-21T03:08:55;7.10;1.00
6054;DHT22;3055;50.886;14.814;2024-02-21T03:11:22;7.10;1.00
6054;DHT22;3055;50.886;14.814;2024-02-21T03:13:54;7.10;1.00
6054;DHT22;3055;50.886;14.814;2024-02-21T03:16:23;7.20;1.00
6054;DHT22;3055;50.886;14.814;2024-02-21T03:18:50;7.20;1.00
6054;DHT22;3055;50.886;14.814;2024-02-21T03:21:17;7.20;1.00
6054;DHT22;3055;50.886;14.814;2024-02-21T03:23:44;7.20;1.00
6054;DHT22;3055;50.886;14.814;2024-02-21T03:26:11;7.20;1.00
6054;DHT22;3055;50.886;14.814;2024-02-21T03:28:42;7.20;1.00
6054;DHT22;3055;50.886;14.814;2024-02-21T03:31:11;7.20;1.00
6054;DHT22;3055;50.886;14.814;2024-02-21T03:33:39;7.20;1.00
6054;DHT22;3055;50.886;14.814;2024-02-21T03:36:07;7.30;1.00
6054;DHT22;3055;50.886;14.814;2024-02-21T03:38:39;7.20;1.00
6054;DHT22;3055;50.886;14.814;2024-02-21T03:41:06;7.20;1.00
6054;DHT22;3055;50.886;14.814;2024-02-21T03:43:33;7.10;1.00
6054;DHT22;3055;50.886;14.814;2024-02-21T03:46:00;7.10;1.00
6054;DHT22;3055;50.886;14.814;2024-02-21T03:48:28;7.10;1.00
6054;DHT22;3055;50.886;14.814;2024-02-21T03:50:56;7.10;1.00
6054;DHT22;3055;50.886;14.814;2024-02-21T03:53:23;7.10;1.00
6054;DHT22;3055;50.886;14.814;2024-02-21T03:55:50;7.10;1.00
6054;DHT22;3055;50.886;14.814;2024-02-21T03:58:17;7.10;1.00
6054;DHT22;3055;50.886;14.814;2024-02-21T04:00:44;7.10;1.00
6054;DHT22;3055;50.886;14.814;2024-02-21T04:03:11;7.20;1.00
6054;DHT22;3055;50.886;14.814;2024-02-21T04:05:38;7.20;1.00
6054;DHT22;3055;50.886;14.814;2024-02-21T04:08:07;7.20;1.00
6054;DHT22;3055;50.886;14.814;2024-02-21T04:10:34;7.10;1.00
6054;DHT22;3055;50.886;14.814;2024-02-21T04:13:01;7.10;1.00
6054;DHT22;3055;50.886;14.814;2024-02-21T04:15:28;7.10;1.00
6054;DHT22;3055;50.886;14.814;2024-02-21T04:17:55;7.00;1.00
6054;DHT22;3055;50.886;14.814;2024-02-21T04:20:22;7.00;1.00
6054;DHT22;3055;50.886;14.814;2024-02-21T04:22:49;7.00;1.00
6054;DHT22;3055;50.886;14.814;2024-02-21T04:25:18;6.90;1.00
6054;DHT22;3055;50.886;14.814;2024-02-21T04:27:46;6.90;1.00
6054;DHT22;3055;50.886;14.814;2024-02-21T04:30:13;6.90;1.00
6054;DHT22;3055;50.886;14.814;2024-02-21T04:32:41;6.90;1.00
6054;DHT22;3055;50.886;14.814;2024-02-21T04:35:08;6.90;1.00
6054;DHT22;3055;50.886;14.814;2024-02-21T04:37:35;6.90;1.00
6054;DHT22;3055;50.886;14.814;2024-02-21T04:40:02;6.90;1.00
6054;DHT22;3055;50.886;14.814;2024-02-21T04:42:31;6.90;1.00
6054;DHT22;3055;50.886;14.814;2024-02-21T04:44:58;6.90;1.00
6054;DHT22;3055;50.886;14.814;2024-02-21T04:47:25;6.80;1.00
6054;DHT22;3055;50.886;14.814;2024-02-21T04:49:52;6.90;1.00
6054;DHT22;3055;50.886;14.814;2024-02-21T04:52:19;7.00;1.00
6054;DHT22;3055;50.886;14.814;2024-02-21T04:54:46;6.90;1.00
6054;DHT22;3055;50.886;14.814;2024-02-21T04:57:13;7.00;1.00
6054;DHT22;3055;50.886;14.814;2024-02-21T04:59:44;6.90;1.00
6054;DHT22;3055;50.886;14.814;2024-02-21T05:02:11;6.90;1.00
6054;DHT22;3055;50.886;14.814;2024-02-21T05:04:38;7.00;1.00
6054;DHT22;3055;50.886;14.814;2024-02-21T05:07:07;7.00;1.00
6054;DHT22;3055;50.886;14.814;2024-02-21T05:09:34;7.00;1.00
6054;DHT22;3055;50.886;14.814;2024-02-21T05:12:01;7.00;1.00
6054;DHT22;3055;50.886;14.814;2024-02-21T05:14:28;7.00;1.00
6054;DHT22;3055;50.886;14.814;2024-02-21T05:16:56;7.00;1.00
6054;DHT22;3055;50.886;14.814;2024-02-21T05:19:23;7.00;1.00
6054;DHT22;3055;50.886;14.814;2024-02-21T05:21:50;7.10;1.00
6054;DHT22;3055;50.886;14.814;2024-02-21T05:24:17;7.10;1.00
6054;DHT22;3055;50.886;14.814;2024-02-21T05:26:45;7.10;1.00
6054;DHT22;3055;50.886;14.814;2024-02-21T05:29:12;7.00;1.00
6054;DHT22;3055;50.886;14.814;2024-02-21T05:31:56;7.00;1.00
6054;DHT22;3055;50.886;14.814;2024-02-21T05:34:24;7.00;1.00
6054;DHT22;3055;50.886;14.814;2024-02-21T05:36:52;7.10;1.00
6054;DHT22;3055;50.886;14.814;2024-02-21T05:39:19;7.10;1.00
6054;DHT22;3055;50.886;14.814;2024-02-21T05:41:48;7.00;1.00
6054;DHT22;3055;50.886;14.814;2024-02-21T05:44:16;7.10;1.00
6054;DHT22;3055;50.886;14.814;2024-02-21T05:46:43;7.10;1.00
6054;DHT22;3055;50.886;14.814;2024-02-21T05:49:12;7.10;1.00
6054;DHT22;3055;50.886;14.814;2024-02-21T05:51:40;7.00;1.00
6054;DHT22;3055;50.886;14.814;2024-02-21T05:54:07;7.00;1.00
6054;DHT22;3055;50.886;14.814;2024-02-21T05:56:34;7.00;1.00
6054;DHT22;3055;50.886;14.814;2024-02-21T05:59:01;7.00;1.00
6054;DHT22;3055;50.886;14.814;2024-02-21T06:01:28;7.00;1.00
6054;DHT22;3055;50.886;14.814;2024-02-21T06:03:55;7.00;1.00
6054;DHT22;3055;50.886;14.814;2024-02-21T06:06:23;7.00;1.00
6054;DHT22;3055;50.886;14.814;2024-02-21T06:08:50;7.00;4.40
6054;DHT22;3055;50.886;14.814;2024-02-21T06:11:17;7.00;1.00
6054;DHT22;3055;50.886;14.814;2024-02-21T06:13:44;7.10;1.00
6054;DHT22;3055;50.886;14.814;2024-02-21T06:16:11;7.00;1.00
6054;DHT22;3055;50.886;14.814;2024-02-21T06:18:38;7.00;1.00
6054;DHT22;3055;50.886;14.814;2024-02-21T06:21:06;7.00;1.00
6054;DHT22;3055;50.886;14.814;2024-02-21T06:23:36;7.00;1.00
6054;DHT22;3055;50.886;14.814;2024-02-21T06:26:03;7.00;1.00
6054;DHT22;3055;50.886;14.814;2024-02-21T06:28:31;7.00;4.30
6054;DHT22;3055;50.886;14.814;2024-02-21T06:30:58;7.00;1.00
6054;DHT22;3055;50.886;14.814;2024-02-21T06:33:25;7.10;1.00
6054;DHT22;3055;50.886;14.814;2024-02-21T06:35:53;7.10;1.00
6054;DHT22;3055;50.886;14.814;2024-02-21T06:38:20;7.20;1.00
6054;DHT22;3055;50.886;14.814;2024-02-21T06:40:49;7.30;1.00
6054;DHT22;3055;50.886;14.814;2024-02-21T06:43:18;7.30;1.00
6054;DHT22;3055;50.886;14.814;2024-02-21T06:45:45;7.40;1.00
6054;DHT22;3055;50.886;14.814;2024-02-21T06:48:17;7.40;1.00
6054;DHT22;3055;50.886;14.814;2024-02-21T06:50:45;7.40;1.00
6054;DHT22;3055;50.886;14.814;2024-02-21T06:53:12;7.50;1.00
6054;DHT22;3055;50.886;14.814;2024-02-21T06:55:39;7.50;1.00
6054;DHT22;3055;50.886;14.814;2024-02-21T06:58:07;7.50;1.00
6054;DHT22;3055;50.886;14.814;2024-02-21T07:00:38;7.50;1.00
6054;DHT22;3055;50.886;14.814;2024-02-21T07:03:05;7.60;1.00
6054;DHT22;3055;50.886;14.814;2024-02-21T07:05:32;7.60;1.00
6054;DHT22;3055;50.886;14.814;2024-02-21T07:07:59;7.60;1.00
6054;DHT22;3055;50.886;14.814;2024-02-21T07:10:26;7.60;1.00
6054;DHT22;3055;50.886;14.814;2024-02-21T07:12:54;7.60;1.00
6054;DHT22;3055;50.886;14.814;2024-02-21T07:15:23;7.60;1.00
6054;DHT22;3055;50.886;14.814;2024-02-21T07:17:52;7.60;1.00
6054;DHT22;3055;50.886;14.814;2024-02-21T07:20:20;7.50;1.00
6054;DHT22;3055;50.886;14.814;2024-02-21T07:22:47;7.50;1.00
6054;DHT22;3055;50.886;14.814;2024-02-21T07:25:14;7.60;1.00
6054;DHT22;3055;50.886;14.814;2024-02-21T07:27:42;7.60;1.00
6054;DHT22;3055;50.886;14.814;2024-02-21T07:30:09;7.60;1.00
6054;DHT22;3055;50.886;14.814;2024-02-21T07:32:38;7.60;1.00
6054;DHT22;3055;50.886;14.814;2024-02-21T07:35:05;7.60;1.00
6054;DHT22;3055;50.886;14.814;2024-02-21T07:37:36;7.70;1.00
6054;DHT22;3055;50.886;14.814;2024-02-21T07:40:05;7.80;1.00
6054;DHT22;3055;50.886;14.814;2024-02-21T07:42:33;7.80;1.00
6054;DHT22;3055;50.886;14.814;2024-02-21T07:45:01;7.90;1.00
6054;DHT22;3055;50.886;14.814;2024-02-21T07:47:29;7.80;1.00
6054;DHT22;3055;50.886;14.814;2024-02-21T07:49:57;7.90;1.00
6054;DHT22;3055;50.886;14.814;2024-02-21T07:52:24;7.90;1.00
6054;DHT22;3055;50.886;14.814;2024-02-21T07:54:51;8.00;1.00
6054;DHT22;3055;50.886;14.814;2024-02-21T07:57:18;8.10;99.90
6054;DHT22;3055;50.886;14.814;2024-02-21T07:59:45;8.10;99.90
6054;DHT22;3055;50.886;14.814;2024-02-21T08:02:13;8.20;99.90
6054;DHT22;3055;50.886;14.814;2024-02-21T08:04:41;8.20;99.90
6054;DHT22;3055;50.886;14.814;2024-02-21T08:07:09;8.30;99.90
6054;DHT22;3055;50.886;14.814;2024-02-21T08:09:36;8.30;1.00
6054;DHT22;3055;50.886;14.814;2024-02-21T08:12:06;8.30;1.00
6054;DHT22;3055;50.886;14.814;2024-02-21T08:14:33;8.30;87.30
6054;DHT22;3055;50.886;14.814;2024-02-21T08:17:01;8.20;99.90
6054;DHT22;3055;50.886;14.814;2024-02-21T08:19:29;8.20;52.90
6054;DHT22;3055;50.886;14.814;2024-02-21T08:21:56;8.20;63.70
6054;DHT22;3055;50.886;14.814;2024-02-21T08:24:25;8.10;99.90
6054;DHT22;3055;50.886;14.814;2024-02-21T08:26:52;8.10;99.90
6054;DHT22;3055;50.886;14.814;2024-02-21T08:29:19;8.00;99.90
6054;DHT22;3055;50.886;14.814;2024-02-21T08:31:46;8.00;99.90
6054;DHT22;3055;50.886;14.814;2024-02-21T08:34:13;8.10;99.90
6054;DHT22;3055;50.886;14.814;2024-02-21T08:36:40;8.20;1.00
6054;DHT22;3055;50.886;14.814;2024-02-21T08:39:07;8.30;1.00
6054;DHT22;3055;50.886;14.814;2024-02-21T08:41:36;8.40;99.90
6054;DHT22;3055;50.886;14.814;2024-02-21T08:44:04;8.40;99.90
6054;DHT22;3055;50.886;14.814;2024-02-21T08:46:31;8.50;99.90
6054;DHT22;3055;50.886;14.814;2024-02-21T08:48:58;8.50;99.90
6054;DHT22;3055;50.886;14.814;2024-02-21T08:51:26;8.50;99.90
6054;DHT22;3055;50.886;14.814;2024-02-21T08:53:53;8.50;99.90
6054;DHT22;3055;50.886;14.814;2024-02-21T08:56:21;8.50;99.90
6054;DHT22;3055;50.886;14.814;2024-02-21T08:58:49;8.40;99.90
6054;DHT22;3055;50.886;14.814;2024-02-21T09:01:16;8.50;99.90
6054;DHT22;3055;50.886;14.814;2024-02-21T09:03:43;8.50;99.90
6054;DHT22;3055;50.886;14.814;2024-02-21T09:06:12;8.60;99.90
6054;DHT22;3055;50.886;14.814;2024-02-21T09:08:39;8.70;99.90
6054;DHT22;3055;50.886;14.814;2024-02-21T09:11:06;8.80;1.00
6054;DHT22;3055;50.886;14.814;2024-02-21T09:13:34;8.90;1.00
6054;DHT22;3055;50.886;14.814;2024-02-21T09:16:03;9.00;99.90
6054;DHT22;3055;50.886;14.814;2024-02-21T09:18:31;9.00;99.90
6054;DHT22;3055;50.886;14.814;2024-02-21T09:20:58;9.10;99.90
6054;DHT22;3055;50.886;14.814;2024-02-21T09:23:25;9.10;48.30
6054;DHT22;3055;50.886;14.814;2024-02-21T09:25:53;9.10;1.00
6054;DHT22;3055;50.886;14.814;2024-02-21T09:28:21;9.00;1.00
6054;DHT22;3055;50.886;14.814;2024-02-21T09:30:48;9.10;1.00
6054;DHT22;3055;50.886;14.814;2024-02-21T09:33:16;9.30;99.90
6054;DHT22;3055;50.886;14.814;2024-02-21T09:35:43;9.60;99.90
6054;DHT22;3055;50.886;14.814;2024-02-21T09:38:11;9.80;99.90
6054;DHT22;3055;50.886;14.814;2024-02-21T09:40:38;10.00;99.90
6054;DHT22;3055;50.886;14.814;2024-02-21T09:43:08;10.30;1.00
6054;DHT22;3055;50.886;14.814;2024-02-21T09:45:35;10.50;99.90
6054;DHT22;3055;50.886;14.814;2024-02-21T09:48:24;10.50;1.00
6054;DHT22;3055;50.886;14.814;2024-02-21T09:50:53;10.30;1.00
6054;DHT22;3055;50.886;14.814;2024-02-21T09:53:24;10.10;1.00
6054;DHT22;3055;50.886;14.814;2024-02-21T09:55:52;9.90;1.00
6054;DHT22;3055;50.886;14.814;2024-02-21T09:58:19;9.80;77.70
6054;DHT22;3055;50.886;14.814;2024-02-21T10:00:46;9.70;99.90
6054;DHT22;3055;50.886;14.814;2024-02-21T10:03:13;9.60;99.90
6054;DHT22;3055;50.886;14.814;2024-02-21T10:05:47;9.60;99.90
6054;DHT22;3055;50.886;14.814;2024-02-21T10:08:15;9.50;1.00
6054;DHT22;3055;50.886;14.814;2024-02-21T10:10:43;9.60;1.00
6054;DHT22;3055;50.886;14.814;2024-02-21T10:13:10;9.70;1.00
6054;DHT22;3055;50.886;14.814;2024-02-21T10:15:38;9.90;99.90
6054;DHT22;3055;50.886;14.814;2024-02-21T10:18:05;10.00;99.90
6054;DHT22;3055;50.886;14.814;2024-02-21T10:20:33;10.30;99.90
6054;DHT22;3055;50.886;14.814;2024-02-21T10:23:03;10.60;1.00
6054;DHT22;3055;50.886;14.814;2024-02-21T10:25:33;10.70;99.90
6054;DHT22;3055;50.886;14.814;2024-02-21T10:28:02;10.80;99.90
6054;DHT22;3055;50.886;14.814;2024-02-21T10:30:29;10.60;99.90
6054;DHT22;3055;50.886;14.814;2024-02-21T10:32:57;10.60;99.90
6054;DHT22;3055;50.886;14.814;2024-02-21T10:35:27;10.70;99.90
6054;DHT22;3055;50.886;14.814;2024-02-21T10:37:55;10.80;99.90
6054;DHT22;3055;50.886;14.814;2024-02-21T10:40:26;10.80;99.90
6054;DHT22;3055;50.886;14.814;2024-02-21T10:42:57;10.70;99.90
6054;DHT22;3055;50.886;14.814;2024-02-21T10:45:30;10.60;99.90
6054;DHT22;3055;50.886;14.814;2024-02-21T10:48:08;10.60;99.90
6054;DHT22;3055;50.886;14.814;2024-02-21T10:50:42;10.60;99.90
6054;DHT22;3055;50.886;14.814;2024-02-21T10:53:20;10.60;99.90
6054;DHT22;3055;50.886;14.814;2024-02-21T10:55:56;10.60;99.90
6054;DHT22;3055;50.886;14.814;2024-02-21T10:58:25;10.50;99.90
6054;DHT22;3055;50.886;14.814;2024-02-21T11:00:54;10.50;99.90
6054;DHT22;3055;50.886;14.814;2024-02-21T11:03:21;10.50;99.90
6054;DHT22;3055;50.886;14.814;2024-02-21T11:05:49;10.50;99.90
6054;DHT22;3055;50.886;14.814;2024-02-21T11:08:16;10.50;99.90
6054;DHT22;3055;50.886;14.814;2024-02-21T11:10:46;10.50;99.90
6054;DHT22;3055;50.886;14.814;2024-02-21T11:13:14;10.40;99.90
6054;DHT22;3055;50.886;14.814;2024-02-21T11:15:42;10.50;99.90
6054;DHT22;3055;50.886;14.814;2024-02-21T11:18:09;10.50;99.90
6054;DHT22;3055;50.886;14.814;2024-02-21T11:20:37;10.60;99.90
6054;DHT22;3055;50.886;14.814;2024-02-21T11:23:04;10.70;99.90
6054;DHT22;3055;50.886;14.814;2024-02-21T11:25:32;10.70;99.90
6054;DHT22;3055;50.886;14.814;2024-02-21T11:28:00;10.80;90.20
6054;DHT22;3055;50.886;14.814;2024-02-21T11:30:30;10.90;99.90
6054;DHT22;3055;50.886;14.814;2024-02-21T11:33:02;10.80;27.80
6054;DHT22;3055;50.886;14.814;2024-02-21T11:35:33;10.80;22.80
6054;DHT22;3055;50.886;14.814;2024-02-21T11:38:10;10.70;23.00
6054;DHT22;3055;50.886;14.814;2024-02-21T11:40:43;10.70;55.80
6054;DHT22;3055;50.886;14.814;2024-02-21T11:43:10;10.70;36.60
6054;DHT22;3055;50.886;14.814;2024-02-21T11:45:38;10.70;23.00
6054;DHT22;3055;50.886;14.814;2024-02-21T11:48:06;10.70;31.70
6054;DHT22;3055;50.886;14.814;2024-02-21T11:50:35;10.70;8.90
6054;DHT22;3055;50.886;14.814;2024-02-21T11:53:02;10.70;11.00
6054;DHT22;3055;50.886;14.814;2024-02-21T11:55:29;10.60;24.30
6054;DHT22;3055;50.886;14.814;2024-02-21T11:57:56;10.60;15.90
6054;DHT22;3055;50.886;14.814;2024-02-21T12:00:25;10.60;22.60
6054;DHT22;3055;50.886;14.814;2024-02-21T12:02:55;10.60;11.30
6054;DHT22;3055;50.886;14.814;2024-02-21T12:05:27;10.60;26.60
6054;DHT22;3055;50.886;14.814;2024-02-21T12:07:55;10.70;35.10
6054;DHT22;3055;50.886;14.814;2024-02-21T12:10:25;10.70;34.50
6054;DHT22;3055;50.886;14.814;2024-02-21T12:12:53;10.70;37.80
6054;DHT22;3055;50.886;14.814;2024-02-21T12:15:23;10.80;1.00
6054;DHT22;3055;50.886;14.814;2024-02-21T12:17:51;10.80;1.00
6054;DHT22;3055;50.886;14.814;2024-02-21T12:20:20;10.80;1.00
6054;DHT22;3055;50.886;14.814;2024-02-21T12:22:49;10.90;1.00
6054;DHT22;3055;50.886;14.814;2024-02-21T12:25:17;10.90;1.00
6054;DHT22;3055;50.886;14.814;2024-02-21T12:27:45;11.00;1.00
6054;DHT22;3055;50.886;14.814;2024-02-21T12:30:12;11.10;1.00
6054;DHT22;3055;50.886;14.814;2024-02-21T12:32:39;11.20;1.00
6054;DHT22;3055;50.886;14.814;2024-02-21T12:35:07;11.30;1.00
6054;DHT22;3055;50.886;14.814;2024-02-21T12:37:36;11.50;1.00
6054;DHT22;3055;50.886;14.814;2024-02-21T12:40:05;11.60;1.00
6054;DHT22;3055;50.886;14.814;2024-02-21T12:42:32;11.80;1.00
6054;DHT22;3055;50.886;14.814;2024-02-21T12:45:00;12.00;1.00
6054;DHT22;3055;50.886;14.814;2024-02-21T12:47:28;12.10;1.00
6054;DHT22;3055;50.886;14.814;2024-02-21T12:49:56;12.40;1.00
6054;DHT22;3055;50.886;14.814;2024-02-21T12:52:23;12.60;99.90
6054;DHT22;3055;50.886;14.814;2024-02-21T12:54:51;12.80;99.90
6054;DHT22;3055;50.886;14.814;2024-02-21T12:57:22;12.90;99.90
6054;DHT22;3055;50.886;14.814;2024-02-21T12:59:49;12.90;99.90
6054;DHT22;3055;50.886;14.814;2024-02-21T13:02:16;13.20;99.90
6054;DHT22;3055;50.886;14.814;2024-02-21T13:04:43;13.30;99.90
6054;DHT22;3055;50.886;14.814;2024-02-21T13:07:10;13.50;99.90
6054;DHT22;3055;50.886;14.814;2024-02-21T13:09:37;13.50;99.90
6054;DHT22;3055;50.886;14.814;2024-02-21T13:12:08;13.40;99.90
6054;DHT22;3055;50.886;14.814;2024-02-21T13:14:35;13.20;99.90
6054;DHT22;3055;50.886;14.814;2024-02-21T13:17:04;13.00;99.90
6054;DHT22;3055;50.886;14.814;2024-02-21T13:19:32;12.90;99.90
6054;DHT22;3055;50.886;14.814;2024-02-21T13:21:59;12.80;99.90
6054;DHT22;3055;50.886;14.814;2024-02-21T13:24:26;12.70;99.90
6054;DHT22;3055;50.886;14.814;2024-02-21T13:26:53;12.60;99.90
6054;DHT22;3055;50.886;14.814;2024-02-21T13:29:22;12.50;99.90
6054;DHT22;3055;50.886;14.814;2024-02-21T13:31:49;12.40;99.90
6054;DHT22;3055;50.886;14.814;2024-02-21T13:34:16;12.40;99.90
6054;DHT22;3055;50.886;14.814;2024-02-21T13:36:44;12.30;99.90
6054;DHT22;3055;50.886;14.814;2024-02-21T13:39:11;12.40;99.90
6054;DHT22;3055;50.886;14.814;2024-02-21T13:41:41;12.70;99.90
6054;DHT22;3055;50.886;14.814;2024-02-21T13:44:09;13.10;99.90
6054;DHT22;3055;50.886;14.814;2024-02-21T13:46:37;13.20;99.90
6054;DHT22;3055;50.886;14.814;2024-02-21T13:49:05;13.20;99.90
6054;DHT22;3055;50.886;14.814;2024-02-21T13:51:33;13.00;99.90
6054;DHT22;3055;50.886;14.814;2024-02-21T13:54:02;12.90;99.90
6054;DHT22;3055;50.886;14.814;2024-02-21T13:56:30;13.10;99.90
6054;DHT22;3055;50.886;14.814;2024-02-21T13:58:58;13.50;99.90
6054;DHT22;3055;50.886;14.814;2024-02-21T14:01:26;13.80;99.90
6054;DHT22;3055;50.886;14.814;2024-02-21T14:03:55;14.10;99.90
6054;DHT22;3055;50.886;14.814;2024-02-21T14:06:22;14.40;99.90
6054;DHT22;3055;50.886;14.814;2024-02-21T14:08:49;14.70;99.90
6054;DHT22;3055;50.886;14.814;2024-02-21T14:11:16;14.90;95.90
6054;DHT22;3055;50.886;14.814;2024-02-21T14:13:43;14.90;83.90
6054;DHT22;3055;50.886;14.814;2024-02-21T14:16:10;15.00;66.80
6054;DHT22;3055;50.886;14.814;2024-02-21T14:18:39;14.90;56.60
6054;DHT22;3055;50.886;14.814;2024-02-21T14:21:09;15.00;49.00
6054;DHT22;3055;50.886;14.814;2024-02-21T14:23:37;15.20;44.20
6054;DHT22;3055;50.886;14.814;2024-02-21T14:26:04;14.90;26.40
6054;DHT22;3055;50.886;14.814;2024-02-21T14:28:32;14.60;26.50
6054;DHT22;3055;50.886;14.814;2024-02-21T14:31:00;14.50;24.10
6054;DHT22;3055;50.886;14.814;2024-02-21T14:33:29;14.60;27.70
6054;DHT22;3055;50.886;14.814;2024-02-21T14:35:56;14.50;22.20
6054;DHT22;3055;50.886;14.814;2024-02-21T14:38:25;14.40;17.80
6054;DHT22;3055;50.886;14.814;2024-02-21T14:40:52;14.40;16.40
6054;DHT22;3055;50.886;14.814;2024-02-21T14:43:19;14.40;16.60
6054;DHT22;3055;50.886;14.814;2024-02-21T14:45:47;14.50;13.60
6054;DHT22;3055;50.886;14.814;2024-02-21T14:48:14;14.30;14.10
6054;DHT22;3055;50.886;14.814;2024-02-21T14:50:41;14.10;10.10
6054;DHT22;3055;50.886;14.814;2024-02-21T14:53:08;13.80;12.40
6054;DHT22;3055;50.886;14.814;2024-02-21T14:55:37;13.60;12.00
6054;DHT22;3055;50.886;14.814;2024-02-21T14:58:07;13.40;15.60
6054;DHT22;3055;50.886;14.814;2024-02-21T15:00:34;13.20;15.50
6054;DHT22;3055;50.886;14.814;2024-02-21T15:03:01;13.10;17.40
6054;DHT22;3055;50.886;14.814;2024-02-21T15:05:28;13.00;18.40
6054;DHT22;3055;50.886;14.814;2024-02-21T15:07:56;12.90;19.70
6054;DHT22;3055;50.886;14.814;2024-02-21T15:10:24;12.90;18.60
6054;DHT22;3055;50.886;14.814;2024-02-21T15:12:53;12.90;22.40
6054;DHT22;3055;50.886;14.814;2024-02-21T15:15:20;12.80;20.20
6054;DHT22;3055;50.886;14.814;2024-02-21T15:17:47;12.60;21.30
6054;DHT22;3055;50.886;14.814;2024-02-21T15:20:14;12.50;27.10
6054;DHT22;3055;50.886;14.814;2024-02-21T15:22:41;12.50;29.10
6054;DHT22;3055;50.886;14.814;2024-02-21T15:25:09;12.60;30.90
6054;DHT22;3055;50.886;14.814;2024-02-21T15:27:41;12.80;30.50
6054;DHT22;3055;50.886;14.814;2024-02-21T15:30:11;13.00;27.30
6054;DHT22;3055;50.886;14.814;2024-02-21T15:32:38;13.10;35.60
6054;DHT22;3055;50.886;14.814;2024-02-21T15:35:06;13.10;21.50
6054;DHT22;3055;50.886;14.814;2024-02-21T15:37:33;12.90;23.60
6054;DHT22;3055;50.886;14.814;2024-02-21T15:40:00;12.80;22.50
6054;DHT22;3055;50.886;14.814;2024-02-21T15:42:28;12.60;22.20
6054;DHT22;3055;50.886;14.814;2024-02-21T15:44:57;12.60;26.10
6054;DHT22;3055;50.886;14.814;2024-02-21T15:47:27;12.50;26.40
6054;DHT22;3055;50.886;14.814;2024-02-21T15:49:54;12.30;32.10
6054;DHT22;3055;50.886;14.814;2024-02-21T15:52:22;12.10;39.90
6054;DHT22;3055;50.886;14.814;2024-02-21T15:54:49;11.90;52.10
6054;DHT22;3055;50.886;14.814;2024-02-21T15:57:16;11.70;76.00
6054;DHT22;3055;50.886;14.814;2024-02-21T15:59:43;11.50;95.20
6054;DHT22;3055;50.886;14.814;2024-02-21T16:02:10;11.30;99.90
6054;DHT22;3055;50.886;14.814;2024-02-21T16:04:40;11.10;99.90
6054;DHT22;3055;50.886;14.814;2024-02-21T16:07:07;10.90;99.90
6054;DHT22;3055;50.886;14.814;2024-02-21T16:09:34;10.80;99.90